Strona główna
METAR-TAF:

METAR-TAF

Lotnisko :

Port lotniczy Cần Thơ

Cần Thơ, Wietnam

Szerokość geograficzna: 10-05-07N, Długość geograficzna: 105-42-43E, wysokość: 3 m

Aktualna obserwacja pogody

Raport powstał 21 minut temu, godzina 04:00 UTC
Wiatr 2 kt z kierunków zmiennych
Temperatura 28°C
Wilgotność 70%
Ciśnienie 1013 hPa
Widzialność: 7000 m
Rozproszone chmury na wysokości 1500 ft

METAR: VVCT 110400Z VRB02KT 7000 SCT015 28/22 Q1013 NOSIG

czas: 11:21 (04:21 UTC)

Prognoza

Raport powstał 4 godziny i 42 minut temu, godzina 23:39 UTC
Prognoza ważna od 11 godzina 00 UTC do 11 godzina 24 UTC
Wiatr 3 kt z kierunków zmiennych
Widzialność: 2000 m
Rozproszone chmury na wysokości 1500 ft
Rozproszone chmury na wysokości 4000 ft
zamglenie
Stopniowe zmiany
od 11 godzina 01 UTC do 11 godzina 02 UTC
Widzialność 10 km lub więcej
Stopniowe zmiany
od 11 godzina 08 UTC do 11 godzina 09 UTC
Wiatr 10 kt od południowo-południowy wschód

TAF: VVCT 102339Z 1100/1124 VRB03KT 2000 BR SCT015 SCT040 BECMG 1101/1102 9999 NSW BECMG 1108/1109 15010KT

Obserwacja i prognoza pogody dla ponad 4000 lotnisk (raport METAR i TAF).

Dostępne stacje oznaczono żółtymi i czerwonymi punktami na mapie.

Najedź kursorem aby zobaczyć nazwę stacji.

Kliknij aby zobaczyć obserwacje i prognozy pogody.

Aby zmienić mapę: kliknij na zielony przycisk z czarnym krzyżykiem, aby powiększyć; na zielony przycisk z myślnikiem, aby pomniejszyć; na zielone strzałki, aby przejść do map sąsiednich.


METAR-TAF: